Time;durP1;ratioP1;P1;durP2;ratioP2;P2;SDS_P1;SDS_P2;PMS_P1;PMS_P2;Temp;Humidity;BMP_temperature;BMP_pressure;BME280_temperature;BME280_humidity;BME280_pressure;Samples;Min_cycle;Max_cycle;Signal;HPM_P1;HPM_P2
2021/05/12 00:03:44;;;;;;;;;;;10.40;99.90;;;9.40;99.80;95145.00;10525818;28;1706;-86
2021/05/12 00:08:47;;;;;;;;;;;10.40;99.90;;;9.29;99.40;95138.94;10514973;28;1964;-85
2021/05/12 00:13:50;;;;;;;;;;;10.20;99.90;;;9.27;99.25;95142.97;10486498;28;2036;-85
2021/05/12 00:18:53;;;;;;;;;;;10.20;99.90;;;9.32;100.00;95137.56;10487875;28;1616;-85
2021/05/12 00:24:00;;;;;;;;;;;10.20;99.90;;;9.26;99.59;95142.16;10485413;28;2153;-85
2021/05/12 00:29:02;;;;;;;;;;;10.20;99.90;;;9.17;99.70;95133.91;10489041;28;2118;-86
2021/05/12 00:34:05;;;;;;;;;;;10.10;99.90;;;9.18;100.00;95138.19;10485350;28;2061;-87
2021/05/12 00:39:08;;;;;;;;;;;10.10;99.90;;;9.16;99.38;95123.44;10495833;28;2143;-86
2021/05/12 00:44:10;;;;;;;;;;;10.10;99.90;;;9.10;99.52;95119.25;10505124;28;1894;-86
2021/05/12 00:49:13;;;;;;;;;;;10.10;99.90;;;9.04;100.00;95115.78;10488725;28;1996;-86
2021/05/12 00:54:15;;;;;;;;;;;10.00;99.90;;;9.03;99.58;95119.53;10483403;28;2140;-86
2021/05/12 00:59:18;;;;;;;;;;;10.00;99.90;;;9.05;99.90;95113.91;10498169;28;1755;-86
2021/05/12 01:04:20;;;;;;;;;;;10.00;99.90;;;8.93;99.43;95108.91;10523773;28;1848;-86
2021/05/12 01:09:22;;;;;;;;;;;10.00;99.90;;;8.89;100.00;95103.28;10521983;28;1966;-88
2021/05/12 01:14:25;;;;;;;;;;;9.90;99.90;;;8.83;100.00;95115.09;10504308;28;1308;-87
2021/05/12 01:19:28;;;;;;;;;;;9.90;99.90;;;8.86;99.82;95119.13;10491302;28;2062;-85
2021/05/12 01:24:30;;;;;;;;;;;9.80;99.90;;;8.89;100.00;95118.56;10482897;28;2218;-85
2021/05/12 01:29:33;;;;;;;;;;;9.80;99.90;;;8.84;99.93;95132.00;10519805;28;1571;-86
2021/05/12 01:34:35;;;;;;;;;;;11.00;99.90;;;8.83;100.00;95135.75;10491324;28;2117;-87
2021/05/12 01:39:38;;;;;;;;;;;9.90;99.90;;;8.80;100.00;95130.97;10486362;28;2041;-86
2021/05/12 01:44:40;;;;;;;;;;;9.80;99.90;;;8.81;99.99;95135.25;10488906;28;2176;-85
2021/05/12 01:49:43;;;;;;;;;;;11.00;99.90;;;8.80;100.00;95139.00;10488531;28;1343;-88
2021/05/12 01:54:45;;;;;;;;;;;9.70;99.90;;;8.82;100.00;95144.88;10505386;28;2184;-88
2021/05/12 01:59:47;;;;;;;;;;;9.80;99.90;;;8.79;100.00;95148.94;10487746;28;2102;-86
2021/05/12 02:04:50;;;;;;;;;;;9.80;99.90;;;8.79;100.00;95142.75;10484038;28;2098;-83
2021/05/12 02:09:53;;;;;;;;;;;9.70;99.90;;;8.79;100.00;95151.59;10489028;28;1866;-88
2021/05/12 02:14:55;;;;;;;;;;;9.70;99.90;;;8.82;100.00;95137.63;10497310;28;2110;-87
2021/05/12 02:19:58;;;;;;;;;;;9.80;99.90;;;8.73;100.00;95130.47;10537959;28;1771;-87
2021/05/12 02:25:00;;;;;;;;;;;9.80;99.90;;;8.77;100.00;95132.31;10513664;28;2066;-87
2021/05/12 02:30:05;;;;;;;;;;;9.70;99.90;;;8.77;100.00;95139.53;10516128;28;1735;-88
2021/05/12 02:35:07;;;;;;;;;;;9.70;99.90;;;8.81;100.00;95135.25;10521471;28;2023;-85
2021/05/12 02:40:09;;;;;;;;;;;9.70;99.90;;;8.79;100.00;95132.03;10489293;28;1742;-84
2021/05/12 02:45:12;;;;;;;;;;;9.80;99.90;;;8.81;100.00;95133.34;10496919;28;2161;-84
2021/05/12 02:50:15;;;;;;;;;;;9.70;99.90;;;8.81;100.00;95132.56;10494892;28;2171;-87
2021/05/12 02:55:17;;;;;;;;;;;9.80;99.90;;;8.72;100.00;95131.56;10507662;28;2158;-85
2021/05/12 03:00:20;;;;;;;;;;;9.70;99.90;;;8.77;100.00;95147.59;10505367;28;2166;-83
2021/05/12 03:05:22;;;;;;;;;;;9.80;99.90;;;8.72;100.00;95143.06;10523786;28;1965;-86
2021/05/12 03:10:27;;;;;;;;;;;9.80;99.90;;;8.80;100.00;95144.38;10499313;28;2029;-84
2021/05/12 03:15:30;;;;;;;;;;;9.70;99.90;;;8.78;100.00;95138.47;10495557;28;1997;-84
2021/05/12 03:20:33;;;;;;;;;;;9.70;99.90;;;8.77;100.00;95134.19;10502280;28;2142;-85
2021/05/12 03:25:35;;;;;;;;;;;9.70;99.90;;;8.82;100.00;95134.16;10511288;28;2172;-88
2021/05/12 03:30:38;;;;;;;;;;;9.70;99.90;;;8.77;100.00;95143.03;10516330;28;1720;-85
2021/05/12 03:35:41;;;;;;;;;;;9.70;99.90;;;8.66;100.00;95142.28;10514258;28;1822;-85
2021/05/12 03:40:43;;;;;;;;;;;9.70;99.90;;;8.72;100.00;95140.41;10499366;28;1672;-85
2021/05/12 03:45:45;;;;;;;;;;;9.70;99.90;;;8.75;100.00;95152.44;10485370;28;2079;-84
2021/05/12 03:50:48;;;;;;;;;;;9.70;99.90;;;8.72;100.00;95147.63;10483867;28;1573;-85
2021/05/12 03:55:56;;;;;;;;;;;9.70;99.90;;;8.70;100.00;95147.88;10485328;28;2123;-86
2021/05/12 04:00:59;;;;;;;;;;;9.70;99.90;;;8.70;100.00;95158.59;10492657;28;1866;-86
2021/05/12 04:06:02;;;;;;;;;;;9.70;99.90;;;8.75;100.00;95155.09;10487600;28;2104;-86
2021/05/12 04:11:05;;;;;;;;;;;9.70;99.90;;;8.76;100.00;95164.75;10486701;28;2178;-85
2021/05/12 04:16:08;;;;;;;;;;;9.70;99.90;;;8.79;100.00;95161.53;10517049;28;2367;-87
2021/05/12 04:21:10;;;;;;;;;;;9.70;99.90;;;8.78;100.00;95157.22;10499956;28;2322;-89
2021/05/12 04:26:13;;;;;;;;;;;9.70;99.90;;;8.78;100.00;95166.09;10507389;28;2191;-87
2021/05/12 04:31:15;;;;;;;;;;;9.70;99.90;;;8.80;100.00;95163.13;10500673;28;1945;-84
2021/05/12 04:36:18;;;;;;;;;;;9.70;99.90;;;8.75;100.00;95160.47;10493460;28;2036;-84
2021/05/12 04:41:24;;;;;;;;;;;9.70;99.90;;;8.72;100.00;95153.00;10509992;28;1904;-84
2021/05/12 04:46:28;;;;;;;;;;;9.70;99.90;;;8.83;100.00;95157.19;10497249;28;2263;-84
2021/05/12 04:51:33;;;;;;;;;;;9.70;99.90;;;8.79;100.00;95150.81;10495619;28;2095;-85
2021/05/12 04:56:36;;;;;;;;;;;9.80;99.90;;;8.87;100.00;95160.94;10490563;28;2321;-82
2021/05/12 05:01:39;;;;;;;;;;;9.80;99.90;;;8.84;100.00;95161.47;10489445;28;2125;-83
2021/05/12 05:06:41;;;;;;;;;;;9.80;99.90;;;8.84;100.00;95153.44;10490216;28;2443;-88
2021/05/12 05:11:46;;;;;;;;;;;9.80;99.90;;;8.88;100.00;95157.97;10496391;28;2283;-83
2021/05/12 05:16:49;;;;;;;;;;;9.80;99.90;;;8.86;100.00;95152.09;10481833;28;2088;-84
2021/05/12 05:21:52;;;;;;;;;;;9.90;99.90;;;8.92;100.00;95160.91;10483330;28;2213;-83
2021/05/12 05:26:56;;;;;;;;;;;9.80;99.90;;;8.92;100.00;95160.91;10508170;28;2030;-85
2021/05/12 05:31:59;;;;;;;;;;;9.80;99.90;;;8.96;100.00;95161.94;10483189;28;2079;-84
2021/05/12 05:37:02;;;;;;;;;;;9.90;99.90;;;8.87;100.00;95164.41;10496659;28;2034;-85
2021/05/12 05:42:06;;;;;;;;;;;9.90;99.90;;;8.93;100.00;95173.22;10491697;28;2182;-82
2021/05/12 05:47:14;;;;;;;;;;;9.90;99.90;;;8.94;100.00;95166.78;10489944;28;2136;-85
2021/05/12 05:52:17;;;;;;;;;;;9.90;99.90;;;9.10;100.00;95173.66;10505429;28;2132;-84
2021/05/12 05:57:19;;;;;;;;;;;10.00;99.90;;;9.08;100.00;95170.44;10475700;28;2119;-84
2021/05/12 06:02:22;;;;;;;;;;;10.00;99.90;;;9.11;100.00;95183.31;10475965;28;1513;-85
2021/05/12 06:07:25;;;;;;;;;;;10.00;99.90;;;9.13;100.00;95177.66;10487225;28;1984;-86
2021/05/12 06:12:28;;;;;;;;;;;10.10;99.90;;;9.24;100.00;95179.19;10489685;28;2046;-83
2021/05/12 06:17:38;;;;;;;;;;;10.10;99.90;;;9.33;100.00;95177.50;10512920;28;1901;-84
2021/05/12 06:22:41;;;;;;;;;;;10.20;99.90;;;9.50;100.00;95177.13;10476086;28;2043;-86
2021/05/12 06:27:50;;;;;;;;;;;10.40;99.90;;;9.57;100.00;95182.16;10490005;28;1978;-85
2021/05/12 06:32:54;;;;;;;;;;;10.40;99.90;;;9.56;100.00;95184.03;10485109;28;1579;-85
2021/05/12 06:37:57;;;;;;;;;;;10.50;99.90;;;9.59;100.00;95175.41;10495926;28;2078;-85
2021/05/12 06:43:00;;;;;;;;;;;10.50;99.90;;;9.59;100.00;95180.78;10521196;28;1613;-84
2021/05/12 06:48:04;;;;;;;;;;;10.50;99.90;;;9.60;100.00;95166.28;10486381;28;1902;-83
2021/05/12 06:53:07;;;;;;;;;;;10.50;99.90;;;9.65;100.00;95174.28;10512107;28;2161;-84
2021/05/12 06:58:10;;;;;;;;;;;10.60;99.90;;;9.88;100.00;95166.56;10505998;28;1221;-83
2021/05/12 07:03:12;;;;;;;;;;;10.70;99.90;;;10.07;100.00;95174.72;10486423;28;2308;-83
2021/05/12 07:08:15;;;;;;;;;;;10.90;99.90;;;10.07;100.00;95174.72;10492723;28;2083;-85
2021/05/12 07:13:20;;;;;;;;;;;10.90;99.90;;;9.99;100.00;95174.25;10483167;28;2113;-84
2021/05/12 07:18:23;;;;;;;;;;;10.90;99.90;;;10.05;100.00;95156.19;10483118;28;2565;-87
2021/05/12 07:23:28;;;;;;;;;;;10.90;99.90;;;10.09;100.00;95167.97;10474405;28;2086;-86
2021/05/12 07:28:30;;;;;;;;;;;10.90;99.90;;;9.96;99.14;95164.06;10488021;28;2050;-88
2021/05/12 07:33:33;;;;;;;;;;;10.90;99.90;;;9.93;100.00;95169.22;10488174;28;2146;-86
2021/05/12 07:38:36;;;;;;;;;;;10.80;99.90;;;10.10;99.88;95161.50;10484977;28;2094;-86
2021/05/12 07:43:38;;;;;;;;;;;10.90;99.90;;;10.15;100.00;95166.03;10491184;28;2125;-86
2021/05/12 07:48:41;;;;;;;;;;;11.00;99.90;;;9.84;98.86;95163.66;10486088;28;2085;-87
2021/05/12 07:53:44;;;;;;;;;;;10.80;99.90;;;9.87;99.93;95154.25;10485422;28;2213;-87
2021/05/12 07:58:47;;;;;;;;;;;10.70;99.90;;;10.12;100.00;95156.66;10478627;28;2109;-88
2021/05/12 08:03:50;;;;;;;;;;;10.90;99.90;;;9.93;98.46;95151.22;10476688;28;1496;-88
2021/05/12 08:08:52;;;;;;;;;;;10.90;99.90;;;9.84;99.49;95160.16;10506552;28;2078;-87
2021/05/12 08:13:55;;;;;;;;;;;10.70;99.90;;;9.86;99.23;95163.34;10500796;28;1701;-87
2021/05/12 08:18:58;;;;;;;;;;;10.80;99.90;;;9.92;99.27;95162.22;10498041;28;2159;-87
2021/05/12 08:24:01;;;;;;;;;;;10.70;99.90;;;10.01;98.80;95166.69;10493301;28;1700;-86
2021/05/12 08:29:06;;;;;;;;;;;10.90;99.90;;;9.93;99.13;95166.53;10491992;28;2369;-87
2021/05/12 08:34:09;;;;;;;;;;;10.80;99.90;;;10.20;99.50;95171.34;10492947;28;2053;-87
2021/05/12 08:39:11;;;;;;;;;;;11.00;99.90;;;9.96;98.17;95157.91;10494107;28;1944;-87
2021/05/12 08:44:14;;;;;;;;;;;11.00;99.90;;;10.00;99.11;95162.41;10490269;28;2083;-87
2021/05/12 08:49:17;;;;;;;;;;;11.00;99.90;;;10.10;100.00;95156.13;10492776;28;1979;-87
2021/05/12 08:54:20;;;;;;;;;;;11.00;99.90;;;9.95;99.33;95154.41;10494262;28;1290;-87
2021/05/12 08:59:22;;;;;;;;;;;10.90;99.90;;;10.07;100.00;95148.66;10493582;28;2051;-86
2021/05/12 09:04:25;;;;;;;;;;;10.90;99.90;;;10.07;100.00;95158.59;10494169;28;1803;-86
2021/05/12 09:09:28;;;;;;;;;;;10.90;99.90;;;10.07;99.58;95147.84;10499863;28;2059;-88
2021/05/12 09:14:32;;;;;;;;;;;11.00;99.90;;;10.07;100.00;95151.34;10492476;28;2549;-86
2021/05/12 09:19:36;;;;;;;;;;;10.90;99.90;;;9.98;99.66;95151.16;10497204;28;2412;-85
2021/05/12 09:24:38;;;;;;;;;;;10.90;99.90;;;9.82;98.80;95151.59;10491517;28;2171;-89
2021/05/12 09:29:41;;;;;;;;;;;10.80;99.90;;;9.87;100.00;95149.69;10515566;28;2031;-88
2021/05/12 09:34:44;;;;;;;;;;;10.80;99.90;;;9.99;100.00;95154.66;10523332;28;1806;-89
2021/05/12 09:39:46;;;;;;;;;;;10.90;99.90;;;9.79;100.00;95168.25;10524569;28;2084;-88
2021/05/12 09:44:49;;;;;;;;;;;10.80;99.90;;;9.49;100.00;95170.16;10501024;28;2306;-87
2021/05/12 09:49:52;;;;;;;;;;;10.60;99.90;;;9.52;100.00;95164.22;10488334;28;2418;-84
2021/05/12 09:54:55;;;;;;;;;;;10.50;99.90;;;9.68;100.00;95157.63;10486655;28;1697;-86
2021/05/12 09:59:58;;;;;;;;;;;10.50;99.90;;;9.58;100.00;95156.91;10498543;28;1624;-86
2021/05/12 10:05:03;;;;;;;;;;;10.50;99.90;;;9.66;100.00;95137.50;10492196;28;2209;-87
2021/05/12 10:10:06;;;;;;;;;;;10.60;99.90;;;9.84;100.00;95155.59;10485985;28;1910;-87
2021/05/12 10:15:09;;;;;;;;;;;10.60;99.90;;;9.79;100.00;95144.91;10489736;28;2089;-87
2021/05/12 10:20:12;;;;;;;;;;;10.70;99.90;;;9.80;98.90;95148.38;10501311;28;2184;-88
2021/05/12 10:25:15;;;;;;;;;;;10.60;99.90;;;9.78;100.00;95155.94;10517582;28;1508;-87
2021/05/12 10:30:18;;;;;;;;;;;10.70;99.90;;;9.83;99.23;95153.19;10517287;28;2236;-86
2021/05/12 10:35:22;;;;;;;;;;;10.80;99.90;;;9.84;100.00;95157.47;10500058;28;2340;-87
2021/05/12 10:40:24;;;;;;;;;;;10.80;99.90;;;9.79;99.21;95157.53;10508760;28;2007;-86
2021/05/12 10:45:32;;;;;;;;;;;10.80;99.90;;;9.81;98.44;95163.44;10508105;28;2508;-90
2021/05/12 10:50:35;;;;;;;;;;;10.70;99.90;;;9.87;100.00;95165.78;10492787;28;1965;-87
2021/05/12 10:55:41;;;;;;;;;;;10.70;99.90;;;9.82;99.96;95162.34;10483006;28;1498;-87
2021/05/12 11:00:45;;;;;;;;;;;10.70;99.90;;;9.75;99.94;95166.16;10502799;28;2402;-87
2021/05/12 11:05:51;;;;;;;;;;;10.70;99.90;;;9.94;99.70;95150.13;10490644;28;1208;-86
2021/05/12 11:10:54;;;;;;;;;;;10.80;99.90;;;10.00;98.94;95150.88;10489543;28;2107;-87
2021/05/12 11:15:57;;;;;;;;;;;10.90;99.90;;;10.13;98.57;95149.41;10493214;28;2085;-86
2021/05/12 11:21:00;;;;;;;;;;;11.00;99.90;;;10.02;97.64;95156.75;10490367;28;1988;-87
2021/05/12 11:26:02;;;;;;;;;;;11.00;99.90;;;10.11;98.30;95149.66;10490316;28;2230;-88
2021/05/12 11:36:32;;;;;;;;;;;11.10;99.90;;;10.28;98.18;95131.25;10483485;28;2054;-87
2021/05/12 11:41:35;;;;;;;;;;;11.20;99.90;;;10.25;98.59;95139.09;10486458;28;1952;-85
2021/05/12 11:46:38;;;;;;;;;;;11.20;99.90;;;10.18;98.69;95147.47;10495648;28;2125;-86
2021/05/12 11:51:42;;;;;;;;;;;11.20;99.90;;;10.46;98.57;95158.44;10489892;28;2110;-88
2021/05/12 11:56:45;;;;;;;;;;;11.30;99.90;;;10.18;98.44;95150.16;10511110;28;2230;-84
2021/05/12 12:01:49;;;;;;;;;;;11.20;99.90;;;10.04;98.49;95138.47;10496187;28;2034;-88
2021/05/12 12:06:52;;;;;;;;;;;11.10;99.90;;;9.99;99.41;95141.22;10493770;28;2081;-85
2021/05/12 12:11:55;;;;;;;;;;;11.00;99.90;;;10.29;99.91;95132.84;10494569;28;2109;-87
2021/05/12 12:16:58;;;;;;;;;;;11.10;99.90;;;10.16;97.02;95141.56;10491035;28;2051;-89
2021/05/12 12:22:01;;;;;;;;;;;11.20;99.90;;;10.07;99.17;95145.19;10491091;28;1311;-89
2021/05/12 12:27:04;;;;;;;;;;;11.10;99.90;;;10.13;99.20;95142.16;10487718;28;2269;-85
2021/05/12 12:32:07;;;;;;;;;;;11.10;99.90;;;10.09;99.24;95141.09;10491526;28;2074;-86
2021/05/12 12:37:11;;;;;;;;;;;11.10;99.90;;;10.27;100.00;95135.03;10508299;28;2211;-86
2021/05/12 12:42:16;;;;;;;;;;;11.20;99.90;;;10.05;98.83;95134.69;10494984;28;2206;-87
2021/05/12 12:47:19;;;;;;;;;;;11.10;99.90;;;9.85;99.99;95140.28;10538477;28;1921;-89
2021/05/12 12:52:22;;;;;;;;;;;10.90;99.90;;;9.90;100.00;95142.94;10523228;28;2280;-86
2021/05/12 12:57:24;;;;;;;;;;;10.90;99.90;;;9.93;100.00;95145.06;10528460;28;2272;-87
2021/05/12 13:02:27;;;;;;;;;;;10.90;99.90;;;10.22;100.00;95140.41;10495837;28;2458;-86
2021/05/12 13:07:30;;;;;;;;;;;11.00;99.90;;;10.59;100.00;95147.00;10479071;28;2218;-87
2021/05/12 13:12:33;;;;;;;;;;;11.30;99.90;;;10.44;98.13;95152.56;10496201;28;2423;-86
2021/05/12 13:17:36;;;;;;;;;;;11.40;99.90;;;10.58;99.10;95148.09;10480800;28;2257;-88
2021/05/12 13:22:39;;;;;;;;;;;11.50;99.90;;;10.63;98.80;95139.97;10480895;28;2170;-88
2021/05/12 13:27:41;;;;;;;;;;;11.50;99.90;;;10.63;97.69;95153.41;10497862;28;2204;-88
2021/05/12 13:32:44;;;;;;;;;;;11.60;99.90;;;10.31;98.12;95142.50;10487404;28;2460;-86
2021/05/12 13:37:47;;;;;;;;;;;11.30;99.90;;;10.33;99.55;95156.47;10488999;28;2521;-88
2021/05/12 13:42:50;;;;;;;;;;;11.20;99.90;;;10.82;98.88;95148.03;10484705;28;2183;-87
2021/05/12 13:47:53;;;;;;;;;;;11.40;99.90;;;11.22;97.56;95151.22;10479388;28;2236;-85
2021/05/12 13:53:11;;;;;;;;;;;11.90;99.90;;;11.20;95.75;95151.53;10489706;28;2211;-86
2021/05/12 14:03:47;;;;;;;;;;;11.90;99.90;;;10.89;95.57;95148.47;10484556;28;2102;-85
2021/05/12 14:08:51;;;;;;;;;;;11.80;99.90;;;11.08;96.12;95153.84;10497611;28;2135;-85
2021/05/12 14:14:01;;;;;;;;;;;11.90;99.90;;;11.14;93.59;95149.22;10484873;28;2142;-84
2021/05/12 14:19:04;;;;;;;;;;;12.00;99.90;;;11.27;95.65;95161.91;10498887;28;2105;-86
2021/05/12 14:24:07;;;;;;;;;;;12.00;99.90;;;10.92;93.65;95153.25;10480655;28;2145;-85
2021/05/12 14:29:30;;;;;;;;;;;12.00;99.90;;;11.27;95.20;95153.84;10503970;28;1976;-83
2021/05/12 14:34:32;;;;;;;;;;;12.00;99.90;;;11.52;92.65;95139.19;10526913;28;1996;-84
2021/05/12 14:39:36;;;;;;;;;;;12.30;99.90;;;11.72;90.70;95138.84;10521088;28;2007;-83
2021/05/12 14:44:41;;;;;;;;;;;12.50;99.90;;;11.88;90.87;95137.47;10493457;28;2000;-84
2021/05/12 14:49:44;;;;;;;;;;;12.70;99.90;;;11.61;91.43;95142.78;10505442;28;2040;-85
2021/05/12 14:54:55;;;;;;;;;;;12.60;99.90;;;11.55;93.02;95149.34;10480934;28;2099;-85
2021/05/12 15:11:19;;;;;;;;;;;12.00;99.90;;;10.76;93.64;95151.88;11178678;23;2581;-83
2021/05/12 15:16:22;;;;;;;;;;;11.70;99.90;;;10.74;93.57;95149.47;10298582;28;2328;-80
2021/05/12 15:21:25;;;;;;;;;;;11.60;99.90;;;10.86;93.20;95143.66;10290781;28;2156;-81
2021/05/12 15:26:27;;;;;;;;;;;11.70;99.90;;;11.04;92.54;95144.75;10275420;28;2173;-82
2021/05/12 15:31:29;;;;;;;;;;;11.80;99.90;;;10.94;92.57;95147.59;10303020;28;2003;-79
2021/05/12 15:36:32;;;;;;;;;;;11.80;99.90;;;10.83;94.22;95142.38;10271161;28;2178;-84
2021/05/12 15:41:34;;;;;;;;;;;11.80;99.90;;;10.78;93.67;95139.75;10294568;28;2000;-83
2021/05/12 15:46:37;;;;;;;;;;;11.80;99.90;;;10.59;94.93;95138.13;10280329;28;2064;-83
2021/05/12 15:51:40;;;;;;;;;;;11.60;99.90;;;10.62;95.13;95137.53;10290696;28;1971;-86
2021/05/12 15:56:43;;;;;;;;;;;11.50;99.90;;;10.53;94.53;95137.41;10284696;28;2308;-88
2021/05/12 16:01:45;;;;;;;;;;;11.50;99.90;;;10.51;95.41;95134.22;10264096;28;1325;-84
2021/05/12 16:06:53;;;;;;;;;;;11.40;99.90;;;10.35;95.18;95130.91;10249101;28;1981;-83
2021/05/12 16:11:56;;;;;;;;;;;11.40;99.90;;;10.46;95.05;95129.69;10260364;28;2116;-84
2021/05/12 16:17:06;;;;;;;;;;;11.40;99.90;;;10.70;94.68;95132.34;10275553;28;1725;-83
2021/05/12 16:22:08;;;;;;;;;;;11.50;99.90;;;10.83;94.98;95138.88;10281660;28;1812;-84
2021/05/12 16:27:11;;;;;;;;;;;11.60;99.90;;;10.65;96.07;95129.72;10279433;28;2154;-83
2021/05/12 16:32:14;;;;;;;;;;;11.60;99.90;;;10.73;96.19;95129.06;10297579;28;1821;-83
2021/05/12 16:37:17;;;;;;;;;;;11.60;99.90;;;10.68;96.41;95131.00;10293366;28;2165;-86
2021/05/12 16:42:19;;;;;;;;;;;11.60;99.90;;;10.62;96.96;95126.78;10290019;28;2103;-82
2021/05/12 16:47:22;;;;;;;;;;;11.60;99.90;;;10.76;96.01;95123.13;10302411;28;1891;-83
2021/05/12 16:52:25;;;;;;;;;;;11.70;99.90;;;10.41;95.88;95126.25;10290601;28;2097;-84
2021/05/12 16:57:27;;;;;;;;;;;11.50;99.90;;;10.31;96.90;95126.38;10305144;28;2322;-83
2021/05/12 17:02:29;;;;;;;;;;;11.40;99.90;;;10.23;99.17;95123.25;10295620;28;1936;-82
2021/05/12 17:07:32;;;;;;;;;;;11.30;99.90;;;10.08;98.90;95120.72;10297106;28;2171;-82
2021/05/12 17:12:34;;;;;;;;;;;11.20;99.90;;;9.96;99.25;95125.69;10308948;28;2112;-83
2021/05/12 17:17:36;;;;;;;;;;;11.10;99.90;;;9.72;98.19;95123.75;10315267;28;1786;-83
2021/05/12 17:22:39;;;;;;;;;;;10.90;99.90;;;9.81;99.44;95123.16;10297686;28;2204;-83
2021/05/12 17:27:51;;;;;;;;;;;10.80;99.90;;;9.94;100.00;95117.13;10311851;28;2234;-85
2021/05/12 17:32:54;;;;;;;;;;;10.90;99.90;;;9.93;100.00;95120.91;10301948;28;2167;-84
2021/05/12 17:37:57;;;;;;;;;;;10.90;99.90;;;9.96;100.00;95121.09;10295058;28;2235;-84
2021/05/12 17:43:08;;;;;;;;;;;11.00;99.90;;;9.93;100.00;95127.06;10300098;28;1967;-83
2021/05/12 17:48:12;;;;;;;;;;;11.00;99.90;;;9.92;100.00;95132.69;10301378;28;1914;-82
2021/05/12 17:53:15;;;;;;;;;;;11.00;99.90;;;9.78;100.00;95134.44;10285234;28;1528;-83
2021/05/12 17:58:18;;;;;;;;;;;10.90;99.90;;;9.73;100.00;95143.34;10304504;28;1555;-84
2021/05/12 18:03:24;;;;;;;;;;;10.80;99.90;;;9.54;100.00;95135.19;10339778;28;1903;-86
2021/05/12 18:08:30;;;;;;;;;;;10.70;99.90;;;9.60;100.00;95138.66;10333502;28;1879;-86
2021/05/12 18:13:47;;;;;;;;;;;10.60;99.90;;;9.58;100.00;95141.63;10323110;28;1368;-84
2021/05/12 18:18:54;;;;;;;;;;;10.60;99.90;;;9.51;100.00;95149.19;10318668;28;1744;-83
2021/05/12 18:23:57;;;;;;;;;;;10.50;99.90;;;9.44;100.00;95146.03;10302588;28;1703;-83
2021/05/12 18:29:03;;;;;;;;;;;10.50;99.90;;;9.34;100.00;95146.13;10305665;28;1950;-83
2021/05/12 18:34:06;;;;;;;;;;;10.40;99.90;;;9.32;100.00;95148.28;10328831;28;2142;-85
2021/05/12 18:39:14;;;;;;;;;;;10.30;99.90;;;9.34;100.00;95148.78;10332301;28;2222;-84
2021/05/12 18:44:19;;;;;;;;;;;10.30;99.90;;;9.23;100.00;95149.97;10324223;28;2256;-84
2021/05/12 18:49:23;;;;;;;;;;;10.30;99.90;;;9.21;100.00;95148.34;10306300;28;1914;-84
2021/05/12 18:54:25;;;;;;;;;;;10.30;99.90;;;9.10;100.00;95160.25;10299004;28;1945;-82
2021/05/12 18:59:28;;;;;;;;;;;10.10;99.90;;;9.10;100.00;95154.88;10311699;28;1508;-84
2021/05/12 19:04:31;;;;;;;;;;;10.10;99.90;;;9.07;100.00;95160.78;10283422;28;2216;-81
2021/05/12 19:09:40;;;;;;;;;;;10.10;99.90;;;9.09;100.00;95152.47;10289343;28;1963;-84
2021/05/12 19:14:51;;;;;;;;;;;10.10;99.90;;;9.04;100.00;95155.22;10287995;28;1430;-82
2021/05/12 19:20:15;;;;;;;;;;;10.10;99.90;;;9.07;100.00;95160.78;10289754;28;2125;-82
2021/05/12 19:25:36;;;;;;;;;;;10.10;99.90;;;9.02;100.00;95165.38;10297992;28;2156;-81
2021/05/12 19:33:52;;;;;;;;;;;10.00;99.90;;;8.98;100.00;95161.69;10306169;28;2048;-83
2021/05/12 19:41:33;;;;;;;;;;;10.00;99.90;;;9.02;100.00;95163.50;10295913;28;1984;-81
2021/05/12 19:46:37;;;;;;;;;;;10.00;99.90;;;9.03;100.00;95166.97;10302957;28;2099;-84
2021/05/12 19:51:43;;;;;;;;;;;10.00;99.90;;;8.94;100.00;95159.53;10311167;28;2078;-84
2021/05/12 19:58:04;;;;;;;;;;;10.00;99.90;;;9.00;100.00;95154.16;10302654;28;2264;-82
2021/05/12 20:02:23;;;;;;;;;;;10.00;99.90;;;9.00;100.00;95154.94;10292247;28;2158;-85
2021/05/12 20:07:31;;;;;;;;;;;10.00;99.90;;;9.00;100.00;95144.22;10324256;28;1883;-83
2021/05/12 20:12:36;;;;;;;;;;;10.00;99.90;;;9.03;100.00;95146.34;10307643;28;2115;-85
2021/05/12 20:17:38;;;;;;;;;;;10.00;99.90;;;9.02;100.00;95144.75;10313394;28;2335;-84
2021/05/12 20:22:41;;;;;;;;;;;10.00;99.90;;;9.12;100.00;95147.34;10294111;28;2194;-83
2021/05/12 20:27:44;;;;;;;;;;;10.10;99.90;;;9.08;100.00;95151.66;10294318;28;2139;-85
2021/05/12 20:32:52;;;;;;;;;;;10.10;99.90;;;9.05;100.00;95143.41;10297536;28;1532;-84
2021/05/12 20:37:56;;;;;;;;;;;10.10;99.90;;;9.03;100.00;95130.25;10298700;28;1978;-84
2021/05/12 20:42:58;;;;;;;;;;;10.00;99.90;;;9.07;100.00;95128.63;10296560;28;1908;-82
2021/05/12 20:48:03;;;;;;;;;;;10.10;99.90;;;9.05;100.00;95125.44;10301991;28;1936;-84
2021/05/12 20:53:05;;;;;;;;;;;10.10;99.90;;;9.06;100.00;95118.97;10304899;28;2065;-85
2021/05/12 20:58:07;;;;;;;;;;;10.10;99.90;;;9.01;100.00;95113.66;10337652;28;1745;-85
2021/05/12 21:03:10;;;;;;;;;;;10.10;99.90;;;8.96;100.00;95129.75;10339291;28;1970;-85
2021/05/12 21:08:13;;;;;;;;;;;10.00;99.90;;;8.90;100.00;95125.53;10320270;28;1993;-85
2021/05/12 21:13:17;;;;;;;;;;;10.00;99.90;;;8.86;100.00;95119.13;10309262;28;1976;-86
2021/05/12 21:18:22;;;;;;;;;;;9.90;99.90;;;8.83;100.00;95114.31;10334874;28;2034;-84
2021/05/12 21:23:29;;;;;;;;;;;9.90;99.90;;;8.78;100.00;95111.66;10326928;28;1780;-86
2021/05/12 21:28:32;;;;;;;;;;;9.80;99.90;;;8.70;100.00;95118.41;10337204;28;1917;-87
2021/05/12 21:33:35;;;;;;;;;;;9.80;99.90;;;8.65;100.00;95113.91;10326132;28;1295;-87
2021/05/12 21:38:38;;;;;;;;;;;9.70;99.90;;;8.66;100.00;95104.00;10314432;28;1801;-86
2021/05/12 21:43:40;;;;;;;;;;;9.70;99.90;;;8.61;100.00;95096.78;10335004;28;1800;-86
2021/05/12 21:48:44;;;;;;;;;;;9.70;99.90;;;8.63;100.00;95099.16;10314418;28;1976;-87
2021/05/12 21:53:47;;;;;;;;;;;9.70;99.90;;;8.61;100.00;95083.38;10316677;28;1926;-86
2021/05/12 21:58:50;;;;;;;;;;;9.70;99.90;;;8.57;100.00;95084.19;10315487;28;1673;-86
2021/05/12 22:03:55;;;;;;;;;;;9.70;99.90;;;8.53;100.00;95078.63;10341598;28;1613;-86
2021/05/12 22:24:57;;;;;;;;;;;9.50;99.90;;;8.32;100.00;95044.94;10314382;28;2000;-86
2021/05/12 22:30:12;;;;;;;;;;;9.50;99.90;;;8.37;100.00;95047.63;10303454;28;1887;-85
2021/05/12 22:35:16;;;;;;;;;;;9.40;99.90;;;8.39;100.00;95045.47;10309912;28;1618;-84
2021/05/12 22:40:19;;;;;;;;;;;9.40;99.90;;;8.37;100.00;95043.06;10310514;28;1705;-85
2021/05/12 22:45:21;;;;;;;;;;;9.50;99.90;;;8.42;100.00;95050.28;10313727;28;1972;-86
2021/05/12 22:50:25;;;;;;;;;;;9.50;99.90;;;8.48;100.00;95054.53;10303370;28;2250;-85
2021/05/12 22:55:39;;;;;;;;;;;9.50;99.90;;;8.49;100.00;95060.69;10308658;28;1988;-86
2021/05/12 23:00:42;;;;;;;;;;;9.50;99.90;;;8.55;100.00;95064.94;10306975;28;1933;-87
2021/05/12 23:05:44;;;;;;;;;;;9.60;99.90;;;8.56;100.00;95059.28;10312318;28;1594;-84
2021/05/12 23:10:47;;;;;;;;;;;9.60;99.90;;;8.57;100.00;95068.94;10313120;28;2078;-84
2021/05/12 23:15:49;;;;;;;;;;;9.60;99.90;;;8.59;100.00;95056.06;10318807;28;1651;-86
2021/05/12 23:20:52;;;;;;;;;;;9.70;99.90;;;8.62;100.00;95039.44;10319117;28;1762;-86
2021/05/12 23:25:54;;;;;;;;;;;9.70;99.90;;;8.61;100.00;95043.19;10317345;28;1875;-86
2021/05/12 23:30:57;;;;;;;;;;;9.70;99.90;;;8.61;100.00;95043.19;10328220;28;1895;-85
2021/05/12 23:36:00;;;;;;;;;;;9.70;99.90;;;8.59;100.00;95042.69;10306522;28;1888;-85
2021/05/12 23:41:03;;;;;;;;;;;9.70;99.90;;;8.52;100.00;95038.69;10338920;28;2089;-85
2021/05/12 23:46:05;;;;;;;;;;;9.60;99.90;;;8.50;100.00;95040.84;10323721;28;1967;-84
2021/05/12 23:51:08;;;;;;;;;;;9.60;99.90;;;8.52;100.00;95028.78;10324634;28;1981;-85
2021/05/12 23:56:10;;;;;;;;;;;9.60;99.90;;;8.48;100.00;95030.44;10329564;28;1706;-84
